Time;durP1;ratioP1;P1;durP2;ratioP2;P2;SDS_P1;SDS_P2;PMS_P1;PMS_P2;Temp;Humidity;BMP_temperature;BMP_pressure;BME280_temperature;BME280_humidity;BME280_pressure;Samples;Min_cycle;Max_cycle;Signal;HPM_P1;HPM_P2
2023/07/02 00:02:03;;;;;;;0.10;0.10;;;;;;;-145.01;100.00;64805.59;5071496;28;20135;-59
2023/07/02 00:04:32;;;;;;;0.15;0.15;;;;;;;-145.01;100.00;64805.59;5080029;28;20041;-60
2023/07/02 00:07:00;;;;;;;0.10;0.10;;;;;;;-145.01;100.00;64805.59;5072341;28;20099;-58
2023/07/02 00:09:27;;;;;;;0.08;0.08;;;;;;;-145.01;100.00;64805.59;5082032;28;20036;-58
2023/07/02 00:11:54;;;;;;;0.00;0.00;;;;;;;-145.01;100.00;64805.59;5077037;28;20132;-60
2023/07/02 00:14:22;;;;;;;0.10;0.10;;;;;;;-145.01;100.00;64805.59;5076012;28;20044;-60
2023/07/02 00:16:50;;;;;;;0.20;0.20;;;;;;;-145.01;100.00;64805.59;5079208;28;20106;-60
2023/07/02 00:19:17;;;;;;;0.17;0.17;;;;;;;-145.01;100.00;64805.59;5076494;28;20422;-58
2023/07/02 00:21:47;;;;;;;0.03;0.03;;;;;;;-145.01;100.00;64805.59;5072430;28;20466;-58
2023/07/02 00:24:15;;;;;;;0.00;0.00;;;;;;;-145.01;100.00;64805.59;5080938;28;20036;-59
2023/07/02 00:26:43;;;;;;;0.20;0.20;;;;;;;-145.01;100.00;64805.59;5080669;28;20047;-61
2023/07/02 00:29:13;;;;;;;0.10;0.10;;;;;;;-145.01;100.00;64805.59;5077342;28;20177;-58
2023/07/02 00:31:40;;;;;;;0.20;0.20;;;;;;;-145.01;100.00;64805.59;5075038;28;20056;-58
2023/07/02 00:34:07;;;;;;;0.10;0.10;;;;;;;-145.01;100.00;64805.59;5072247;28;20032;-58
2023/07/02 00:36:35;;;;;;;0.10;0.10;;;;;;;-145.01;100.00;64805.59;5079773;28;20035;-59
2023/07/02 00:39:04;;;;;;;0.10;0.10;;;;;;;-145.01;100.00;64805.59;5080728;28;20044;-59
2023/07/02 00:41:31;;;;;;;0.10;0.10;;;;;;;-145.01;100.00;64805.59;5084367;28;20044;-59
2023/07/02 00:43:59;;;;;;;0.10;0.10;;;;;;;-145.01;100.00;64805.59;5080511;28;20044;-59
2023/07/02 00:46:27;;;;;;;0.20;0.10;;;;;;;-145.01;100.00;64805.59;5080429;28;20040;-58
2023/07/02 00:48:55;;;;;;;0.20;0.20;;;;;;;-145.01;100.00;64805.59;5083289;28;20146;-59
2023/07/02 00:51:24;;;;;;;0.17;0.17;;;;;;;-145.01;100.00;64805.59;5071875;28;20052;-58
2023/07/02 00:53:52;;;;;;;0.17;0.17;;;;;;;-145.01;100.00;64805.59;5080593;28;20032;-59
2023/07/02 00:56:21;;;;;;;0.20;0.20;;;;;;;-145.01;100.00;64805.59;5081390;28;20049;-58
2023/07/02 00:58:50;;;;;;;0.20;0.20;;;;;;;-145.01;100.00;64805.59;5082398;28;20052;-59
2023/07/02 01:01:18;;;;;;;0.10;0.10;;;;;;;-145.01;100.00;64805.59;5076231;28;20044;-59
2023/07/02 01:03:53;;;;;;;0.10;0.10;;;;;;;-145.01;100.00;64805.59;5079368;28;20036;-59
2023/07/02 01:06:25;;;;;;;0.10;0.10;;;;;;;-145.01;100.00;64805.59;5083565;28;20032;-58
2023/07/02 01:08:54;;;;;;;0.10;0.10;;;;;;;-145.01;100.00;64805.59;5076873;28;20510;-59
2023/07/02 01:11:25;;;;;;;0.13;0.13;;;;;;;-145.01;100.00;64805.59;5075705;28;20040;-59
2023/07/02 01:13:53;;;;;;;0.10;0.10;;;;;;;-145.01;100.00;64805.59;5076485;28;20052;-59
2023/07/02 01:16:21;;;;;;;0.10;0.10;;;;;;;-145.01;100.00;64805.59;5076043;28;20078;-59
2023/07/02 01:18:50;;;;;;;0.20;0.20;;;;;;;-145.01;100.00;64805.59;5079338;28;20048;-59
2023/07/02 01:21:19;;;;;;;0.10;0.10;;;;;;;-145.01;100.00;64805.59;5080258;28;20488;-60
2023/07/02 01:23:46;;;;;;;0.08;0.08;;;;;;;-145.01;100.00;64805.59;5080121;28;20391;-60
2023/07/02 01:26:14;;;;;;;0.20;0.20;;;;;;;-145.01;100.00;64805.59;5082593;28;20117;-60
2023/07/02 01:28:42;;;;;;;0.20;0.20;;;;;;;-145.01;100.00;64805.59;5084437;28;20036;-60
2023/07/02 01:31:10;;;;;;;0.10;0.10;;;;;;;-145.01;100.00;64805.59;5082358;28;20041;-60
2023/07/02 01:33:37;;;;;;;0.10;0.10;;;;;;;-145.01;100.00;64805.59;5077057;28;20036;-60
2023/07/02 01:36:05;;;;;;;0.20;0.20;;;;;;;-145.01;100.00;64805.59;5083049;28;20413;-60
2023/07/02 01:38:34;;;;;;;0.10;0.10;;;;;;;-145.01;100.00;64805.59;5077047;28;20474;-59
2023/07/02 01:41:02;;;;;;;0.20;0.20;;;;;;;-145.01;100.00;64805.59;5070595;28;20075;-60
2023/07/02 01:43:29;;;;;;;0.20;0.20;;;;;;;-145.01;100.00;64805.59;5076861;28;20079;-60
2023/07/02 01:45:59;;;;;;;0.40;0.40;;;;;;;-145.01;100.00;64805.59;5079372;28;20050;-59
2023/07/02 01:48:27;;;;;;;0.15;0.15;;;;;;;-145.01;100.00;64805.59;5078374;28;20109;-59
2023/07/02 01:50:54;;;;;;;0.20;0.20;;;;;;;-145.01;100.00;64805.59;5075975;28;20036;-60
2023/07/02 01:53:22;;;;;;;0.20;0.20;;;;;;;-145.01;100.00;64805.59;5078634;28;20072;-60
2023/07/02 01:55:50;;;;;;;0.10;0.10;;;;;;;-145.01;100.00;64805.59;5078182;28;20060;-60
2023/07/02 01:58:18;;;;;;;0.20;0.20;;;;;;;-145.01;100.00;64805.59;5060797;28;20045;-59
2023/07/02 02:00:45;;;;;;;0.13;0.13;;;;;;;-145.01;100.00;64805.59;5079267;28;20048;-60
2023/07/02 02:03:12;;;;;;;0.20;0.20;;;;;;;-145.01;100.00;64805.59;5073348;28;20552;-60
2023/07/02 02:05:40;;;;;;;0.15;0.15;;;;;;;-145.01;100.00;64805.59;5079319;28;20039;-60
2023/07/02 02:08:07;;;;;;;0.20;0.20;;;;;;;-145.01;100.00;64805.59;5078976;28;20049;-60
2023/07/02 02:10:35;;;;;;;0.10;0.10;;;;;;;-145.01;100.00;64805.59;5074963;28;20071;-60
2023/07/02 02:13:04;;;;;;;0.17;0.17;;;;;;;-145.01;100.00;64805.59;5071797;28;20072;-60
2023/07/02 02:15:31;;;;;;;0.20;0.20;;;;;;;-145.01;100.00;64805.59;5081361;28;20045;-60
2023/07/02 02:17:58;;;;;;;0.10;0.10;;;;;;;-145.01;100.00;64805.59;5079004;28;20047;-60
2023/07/02 02:20:27;;;;;;;0.10;0.10;;;;;;;-145.01;100.00;64805.59;5071650;28;20059;-60
2023/07/02 02:22:54;;;;;;;0.17;0.17;;;;;;;-145.01;100.00;64805.59;5077011;28;20043;-60
2023/07/02 02:28:05;;;;;;;0.25;0.25;;;;;;;-145.01;100.00;64805.59;5072668;28;20071;-60
2023/07/02 02:30:32;;;;;;;0.20;0.20;;;;;;;-145.01;100.00;64805.59;5091223;28;20028;-59
2023/07/02 02:33:00;;;;;;;0.20;0.20;;;;;;;-145.01;100.00;64805.59;5069349;28;20048;-60
2023/07/02 02:35:28;;;;;;;0.15;0.15;;;;;;;-145.01;100.00;64805.59;5075402;28;20063;-59
2023/07/02 02:37:55;;;;;;;0.15;0.15;;;;;;;-145.01;100.00;64805.59;5076379;28;20125;-59
2023/07/02 02:40:26;;;;;;;0.20;0.20;;;;;;;-145.01;100.00;64805.59;5082471;28;20055;-59
2023/07/02 02:42:53;;;;;;;0.20;0.20;;;;;;;-145.01;100.00;64805.59;5088722;28;20041;-59
2023/07/02 02:45:22;;;;;;;0.10;0.10;;;;;;;-145.01;100.00;64805.59;5081546;28;20073;-59
2023/07/02 02:47:50;;;;;;;0.35;0.35;;;;;;;-145.01;100.00;64805.59;5081899;28;20045;-60
2023/07/02 02:50:23;;;;;;;0.10;0.10;;;;;;;-145.01;100.00;64805.59;5079038;28;20036;-60
2023/07/02 02:52:50;;;;;;;0.10;0.10;;;;;;;-145.01;100.00;64805.59;5078879;28;20501;-60
2023/07/02 02:55:24;;;;;;;0.10;0.10;;;;;;;-145.01;100.00;64805.59;5073118;28;20048;-60
2023/07/02 02:57:51;;;;;;;0.20;0.20;;;;;;;-145.01;100.00;64805.59;5073158;28;20048;-60
2023/07/02 03:00:19;;;;;;;0.30;0.30;;;;;;;-145.01;100.00;64805.59;5073112;28;20051;-58
2023/07/02 03:02:48;;;;;;;0.10;0.10;;;;;;;-145.01;100.00;64805.59;5077588;28;20043;-58
2023/07/02 03:05:16;;;;;;;0.17;0.17;;;;;;;-145.01;100.00;64805.59;5077524;28;20041;-60
2023/07/02 03:07:46;;;;;;;0.20;0.20;;;;;;;-145.01;100.00;64805.59;5083605;28;20044;-60
2023/07/02 03:10:14;;;;;;;0.20;0.20;;;;;;;-145.01;100.00;64805.59;5076560;28;20075;-60
2023/07/02 03:12:42;;;;;;;0.20;0.20;;;;;;;-145.01;100.00;64805.59;5078157;28;20094;-60
2023/07/02 03:15:10;;;;;;;0.10;0.10;;;;;;;-145.01;100.00;64805.59;5073037;28;20060;-60
2023/07/02 03:17:38;;;;;;;0.17;0.17;;;;;;;-145.01;100.00;64805.59;5079005;28;20040;-59
2023/07/02 03:20:08;;;;;;;0.20;0.20;;;;;;;-145.01;100.00;64805.59;5073640;28;20106;-60
2023/07/02 03:22:36;;;;;;;0.15;0.15;;;;;;;-145.01;100.00;64805.59;5077376;28;20119;-60
2023/07/02 03:25:04;;;;;;;0.20;0.20;;;;;;;-145.01;100.00;64805.59;5080652;28;20052;-60
2023/07/02 03:27:33;;;;;;;0.10;0.10;;;;;;;-145.01;100.00;64805.59;5079572;28;20047;-60
2023/07/02 03:30:00;;;;;;;0.20;0.20;;;;;;;-145.01;100.00;64805.59;5077047;28;20033;-60
2023/07/02 03:32:28;;;;;;;0.10;0.10;;;;;;;-145.01;100.00;64805.59;5080674;28;20037;-60
2023/07/02 03:34:55;;;;;;;0.10;0.10;;;;;;;-145.01;100.00;64805.59;5076458;28;20076;-59
2023/07/02 03:37:24;;;;;;;0.20;0.20;;;;;;;-145.01;100.00;64805.59;5075406;28;20048;-59
2023/07/02 03:39:51;;;;;;;0.20;0.20;;;;;;;-145.01;100.00;64805.59;5078463;28;20067;-60
2023/07/02 03:42:18;;;;;;;0.13;0.13;;;;;;;-145.01;100.00;64805.59;5075558;28;20060;-60
2023/07/02 03:44:46;;;;;;;0.20;0.20;;;;;;;-145.01;100.00;64805.59;5074377;28;20052;-60
2023/07/02 03:47:15;;;;;;;0.10;0.10;;;;;;;-145.01;100.00;64805.59;5078083;28;20052;-60
2023/07/02 03:49:43;;;;;;;0.20;0.17;;;;;;;-145.01;100.00;64805.59;5079716;28;20632;-60
2023/07/02 03:52:10;;;;;;;0.10;0.10;;;;;;;-145.01;100.00;64805.59;5080245;28;20040;-60
2023/07/02 03:54:39;;;;;;;0.10;0.10;;;;;;;-145.01;100.00;64805.59;5076826;28;20135;-60
2023/07/02 03:57:07;;;;;;;0.10;0.10;;;;;;;-145.01;100.00;64805.59;5080505;28;20036;-60
2023/07/02 03:59:35;;;;;;;0.25;0.17;;;;;;;-145.01;100.00;64805.59;5078555;28;20453;-59
2023/07/02 04:02:02;;;;;;;0.30;0.30;;;;;;;-145.01;100.00;64805.59;5073547;28;20523;-60
2023/07/02 04:04:30;;;;;;;0.20;0.20;;;;;;;-145.01;100.00;64805.59;5075026;28;20041;-60
2023/07/02 04:06:57;;;;;;;0.20;0.20;;;;;;;-145.01;100.00;64805.59;5086323;28;20090;-60
2023/07/02 04:09:25;;;;;;;0.20;0.20;;;;;;;-145.01;100.00;64805.59;5081256;28;20052;-60
2023/07/02 04:11:53;;;;;;;0.20;0.20;;;;;;;-145.01;100.00;64805.59;5074633;28;20063;-60
2023/07/02 04:14:21;;;;;;;0.10;0.10;;;;;;;-145.01;100.00;64805.59;5075503;28;20052;-60
2023/07/02 04:16:48;;;;;;;0.25;0.25;;;;;;;-145.01;100.00;64805.59;5080424;28;20068;-60
2023/07/02 04:19:17;;;;;;;0.17;0.17;;;;;;;-145.01;100.00;64805.59;5078247;28;20134;-60
2023/07/02 04:21:44;;;;;;;0.05;0.05;;;;;;;-145.01;100.00;64805.59;5081871;28;20040;-60
2023/07/02 04:24:12;;;;;;;0.17;0.17;;;;;;;-145.01;100.00;64805.59;5085482;28;20045;-60
2023/07/02 04:26:45;;;;;;;0.10;0.10;;;;;;;-145.01;100.00;64805.59;5076518;28;20122;-60
2023/07/02 04:29:14;;;;;;;0.10;0.10;;;;;;;-145.01;100.00;64805.59;5074798;28;20506;-60
2023/07/02 04:31:41;;;;;;;0.10;0.10;;;;;;;-145.01;100.00;64805.59;5073958;28;20272;-59
2023/07/02 04:34:09;;;;;;;0.17;0.17;;;;;;;-145.01;100.00;64805.59;5084251;28;20051;-59
2023/07/02 04:36:36;;;;;;;0.10;0.10;;;;;;;-145.01;100.00;64805.59;5076730;28;20048;-60
2023/07/02 04:39:04;;;;;;;0.10;0.10;;;;;;;-145.01;100.00;64805.59;5079414;28;20080;-60
2023/07/02 04:41:32;;;;;;;0.10;0.10;;;;;;;-145.01;100.00;64805.59;5081400;28;20055;-61
2023/07/02 04:43:59;;;;;;;0.15;0.15;;;;;;;-145.01;100.00;64805.59;5075270;28;20423;-61
2023/07/02 04:46:28;;;;;;;0.20;0.20;;;;;;;-145.01;100.00;64805.59;5078041;28;20051;-59
2023/07/02 04:48:56;;;;;;;0.20;0.20;;;;;;;-145.01;100.00;64805.59;5077265;28;20052;-59
2023/07/02 04:51:23;;;;;;;0.10;0.10;;;;;;;-145.01;100.00;64805.59;5074946;28;20089;-58
2023/07/02 04:53:51;;;;;;;0.10;0.10;;;;;;;-145.01;100.00;64805.59;5077587;28;20051;-59
2023/07/02 04:56:18;;;;;;;0.10;0.10;;;;;;;-145.01;100.00;64805.59;5078430;28;20041;-59
2023/07/02 04:58:46;;;;;;;0.10;0.10;;;;;;;-145.01;100.00;64805.59;5079608;28;20049;-59
2023/07/02 05:01:13;;;;;;;0.10;0.10;;;;;;;-145.01;100.00;64805.59;5074275;28;20050;-59
2023/07/02 05:03:42;;;;;;;0.20;0.20;;;;;;;-145.01;100.00;64805.59;5073372;28;20094;-59
2023/07/02 05:06:09;;;;;;;0.20;0.20;;;;;;;-145.01;100.00;64805.59;5080591;28;20044;-59
2023/07/02 05:08:37;;;;;;;0.10;0.10;;;;;;;-145.01;100.00;64805.59;5074733;28;20102;-60
2023/07/02 05:11:04;;;;;;;0.10;0.10;;;;;;;-145.01;100.00;64805.59;5078585;28;20601;-60
2023/07/02 05:13:31;;;;;;;0.10;0.10;;;;;;;-145.01;100.00;64805.59;5081519;28;20052;-60
2023/07/02 05:15:59;;;;;;;0.22;0.22;;;;;;;-145.01;100.00;64805.59;5077016;28;20079;-59
2023/07/02 05:18:26;;;;;;;0.10;0.10;;;;;;;-145.01;100.00;64805.59;5078725;28;20043;-60
2023/07/02 05:20:55;;;;;;;0.10;0.10;;;;;;;-145.01;100.00;64805.59;5079300;28;20047;-60
2023/07/02 05:23:22;;;;;;;0.20;0.20;;;;;;;-145.01;100.00;64805.59;5077925;28;20058;-59
2023/07/02 05:25:50;;;;;;;0.00;0.00;;;;;;;-145.01;100.00;64805.59;5080855;28;20040;-60
2023/07/02 05:28:17;;;;;;;0.00;0.00;;;;;;;-145.01;100.00;64805.59;5077068;28;20105;-59
2023/07/02 05:30:45;;;;;;;0.20;0.20;;;;;;;-145.01;100.00;64805.59;5085014;28;20040;-60
2023/07/02 05:33:13;;;;;;;0.10;0.10;;;;;;;-145.01;100.00;64805.59;5076205;28;20040;-60
2023/07/02 05:35:40;;;;;;;0.00;0.00;;;;;;;-145.01;100.00;64805.59;5074903;28;20048;-60
2023/07/02 05:38:09;;;;;;;0.20;0.20;;;;;;;-145.01;100.00;64805.59;5077953;28;20066;-60
2023/07/02 05:40:37;;;;;;;0.10;0.10;;;;;;;-145.01;100.00;64805.59;5072302;28;20583;-60
2023/07/02 05:43:04;;;;;;;0.00;0.00;;;;;;;-145.01;100.00;64805.59;5075223;28;20048;-60
2023/07/02 05:45:32;;;;;;;0.00;0.00;;;;;;;-145.01;100.00;64805.59;5083649;28;20044;-60
2023/07/02 05:48:02;;;;;;;0.03;0.03;;;;;;;-145.01;100.00;64805.59;5080987;28;20281;-60
2023/07/02 05:50:30;;;;;;;0.00;0.00;;;;;;;-145.01;100.00;64805.59;5073216;28;20051;-60
2023/07/02 05:52:57;;;;;;;0.10;0.10;;;;;;;-145.01;100.00;64805.59;5077683;28;20121;-59
2023/07/02 05:55:27;;;;;;;0.00;0.00;;;;;;;-145.01;100.00;64805.59;5076145;28;20047;-60
2023/07/02 05:58:01;;;;;;;0.10;0.10;;;;;;;-145.01;100.00;64805.59;5079946;28;20597;-59
2023/07/02 06:00:28;;;;;;;0.10;0.10;;;;;;;-145.01;100.00;64805.59;5078104;28;20063;-59
2023/07/02 06:02:56;;;;;;;0.00;0.00;;;;;;;-145.01;100.00;64805.59;5079174;28;20056;-59
2023/07/02 06:05:26;;;;;;;0.05;0.05;;;;;;;-145.01;100.00;64805.59;5072916;28;20395;-59
2023/07/02 06:07:53;;;;;;;0.10;0.10;;;;;;;-145.01;100.00;64805.59;5076627;28;20410;-57
2023/07/02 06:10:25;;;;;;;0.00;0.00;;;;;;;-145.01;100.00;64805.59;5074926;28;20098;-60
2023/07/02 06:12:54;;;;;;;0.00;0.00;;;;;;;-145.01;100.00;64805.59;5070650;28;20111;-59
2023/07/02 06:15:21;;;;;;;0.00;0.00;;;;;;;-145.01;100.00;64805.59;5079582;28;20398;-59
2023/07/02 06:17:49;;;;;;;0.00;0.00;;;;;;;-145.01;100.00;64805.59;5076611;28;20053;-60
2023/07/02 06:20:23;;;;;;;0.00;0.00;;;;;;;-145.01;100.00;64805.59;5075137;28;20040;-59
2023/07/02 06:22:50;;;;;;;0.00;0.00;;;;;;;-145.01;100.00;64805.59;5069740;28;20048;-59
2023/07/02 06:25:21;;;;;;;0.00;0.00;;;;;;;-145.01;100.00;64805.59;5082143;28;20563;-59
2023/07/02 06:27:49;;;;;;;0.00;0.00;;;;;;;-145.01;100.00;64805.59;5071283;28;20047;-59
2023/07/02 06:30:18;;;;;;;0.00;0.00;;;;;;;-145.01;100.00;64805.59;5080708;28;20057;-59
2023/07/02 06:32:45;;;;;;;;;;;;;;;-145.01;100.00;64805.59;5077276;28;20138;-57
2023/07/02 06:35:12;;;;;;;0.00;0.00;;;;;;;-145.01;100.00;64805.59;5077198;28;19943;-59
2023/07/02 06:37:50;;;;;;;0.00;0.00;;;;;;;-145.01;100.00;64805.59;5076601;28;20044;-59
2023/07/02 06:40:26;;;;;;;0.00;0.00;;;;;;;-145.01;100.00;64805.59;5074698;28;20787;-59
2023/07/02 06:42:55;;;;;;;0.00;0.00;;;;;;;-145.01;100.00;64805.59;5076370;28;20048;-59
2023/07/02 06:45:23;;;;;;;0.00;0.00;;;;;;;-145.01;100.00;64805.59;5076925;28;20072;-60
2023/07/02 06:47:51;;;;;;;0.00;0.00;;;;;;;-145.01;100.00;64805.59;5074502;28;20490;-59
2023/07/02 06:50:22;;;;;;;0.00;0.00;;;;;;;-145.01;100.00;64805.59;5078727;28;20490;-58
2023/07/02 06:52:52;;;;;;;0.00;0.00;;;;;;;-145.01;100.00;64805.59;5083859;28;20047;-57
2023/07/02 06:55:24;;;;;;;0.00;0.00;;;;;;;-145.01;100.00;64805.59;5081388;28;20449;-58
2023/07/02 06:57:51;;;;;;;0.00;0.00;;;;;;;-145.01;100.00;64805.59;5072438;28;20380;-57
2023/07/02 07:00:19;;;;;;;0.00;0.00;;;;;;;-145.01;100.00;64805.59;5076253;28;20070;-58
2023/07/02 07:02:48;;;;;;;0.00;0.00;;;;;;;-145.01;100.00;64805.59;5077524;28;20124;-60
2023/07/02 07:05:25;;;;;;;0.00;0.00;;;;;;;-145.01;100.00;64805.59;5079708;28;20059;-60
2023/07/02 07:07:52;;;;;;;0.00;0.00;;;;;;;-145.01;100.00;64805.59;5070702;28;20466;-59
2023/07/02 07:10:25;;;;;;;0.00;0.00;;;;;;;-145.01;100.00;64805.59;5074567;28;20406;-59
2023/07/02 07:12:54;;;;;;;0.00;0.00;;;;;;;-145.01;100.00;64805.59;5087183;28;20056;-59
2023/07/02 07:15:22;;;;;;;0.00;0.00;;;;;;;-145.01;100.00;64805.59;5075173;28;20043;-59
2023/07/02 07:17:52;;;;;;;0.00;0.00;;;;;;;-145.01;100.00;64805.59;5078115;28;20040;-59
2023/07/02 07:20:24;;;;;;;0.00;0.00;;;;;;;-145.01;100.00;64805.59;5077407;28;20058;-59
2023/07/02 07:22:52;;;;;;;0.03;0.03;;;;;;;-145.01;100.00;64805.59;5073452;28;20123;-59
2023/07/02 07:25:30;;;;;;;0.00;0.00;;;;;;;-145.01;100.00;64805.59;5080747;28;20048;-59
2023/07/02 07:28:00;;;;;;;0.00;0.00;;;;;;;-145.01;100.00;64805.59;5072531;28;20072;-59
2023/07/02 07:30:28;;;;;;;0.00;0.00;;;;;;;-145.01;100.00;64805.59;5077678;28;20040;-59
2023/07/02 07:32:57;;;;;;;0.00;0.00;;;;;;;-145.01;100.00;64805.59;5078317;28;20051;-60
2023/07/02 07:35:27;;;;;;;0.00;0.00;;;;;;;-145.01;100.00;64805.59;5076358;28;20044;-60
2023/07/02 07:37:55;;;;;;;0.10;0.10;;;;;;;-145.01;100.00;64805.59;5077662;28;20059;-59
2023/07/02 07:40:25;;;;;;;0.00;0.00;;;;;;;-145.01;100.00;64805.59;5077950;28;20048;-60
2023/07/02 07:42:55;;;;;;;0.00;0.00;;;;;;;-145.01;100.00;64805.59;5075538;28;20036;-59
2023/07/02 07:45:23;;;;;;;0.00;0.00;;;;;;;-145.01;100.00;64805.59;5065741;28;20044;-58
2023/07/02 07:47:50;;;;;;;0.00;0.00;;;;;;;-145.01;100.00;64805.59;5074551;28;20171;-58
2023/07/02 07:50:26;;;;;;;0.00;0.00;;;;;;;-145.01;100.00;64805.59;5075594;28;20441;-59
2023/07/02 07:52:53;;;;;;;0.00;0.00;;;;;;;-145.01;100.00;64805.59;5079012;28;20113;-60
2023/07/02 07:55:28;;;;;;;0.00;0.00;;;;;;;-145.01;100.00;64805.59;5076267;28;20042;-60
2023/07/02 07:57:56;;;;;;;0.00;0.00;;;;;;;-145.01;100.00;64805.59;5076276;28;20064;-60
2023/07/02 08:00:24;;;;;;;0.00;0.00;;;;;;;-145.01;100.00;64805.59;5071894;28;20053;-59
2023/07/02 08:02:55;;;;;;;0.00;0.00;;;;;;;-145.01;100.00;64805.59;5072918;28;20052;-60
2023/07/02 08:05:27;;;;;;;0.00;0.00;;;;;;;-145.01;100.00;64805.59;5080032;28;20730;-60
2023/07/02 08:07:54;;;;;;;0.00;0.00;;;;;;;-145.01;100.00;64805.59;5073929;28;20137;-58
2023/07/02 08:10:27;;;;;;;0.10;0.10;;;;;;;-145.01;100.00;64805.59;5074716;28;20047;-60
2023/07/02 08:12:57;;;;;;;0.00;0.00;;;;;;;-145.01;100.00;64805.59;5075690;28;20051;-60
2023/07/02 08:15:25;;;;;;;0.10;0.10;;;;;;;-145.01;100.00;64805.59;5074284;28;20037;-60
2023/07/02 08:17:54;;;;;;;0.00;0.00;;;;;;;-145.01;100.00;64805.59;5071677;28;20036;-60
2023/07/02 08:20:26;;;;;;;0.00;0.00;;;;;;;-145.01;100.00;64805.59;5078769;28;20377;-59
2023/07/02 08:22:53;;;;;;;0.00;0.00;;;;;;;-145.01;100.00;64805.59;5072641;28;20045;-59
2023/07/02 08:25:28;;;;;;;0.00;0.00;;;;;;;-145.01;100.00;64805.59;5077390;28;20032;-60
2023/07/02 08:27:56;;;;;;;0.13;0.00;;;;;;;-145.01;100.00;64805.59;5076404;28;20491;-60
2023/07/02 08:30:24;;;;;;;0.00;0.00;;;;;;;-145.01;100.00;64805.59;5081945;28;20036;-59
2023/07/02 08:32:54;;;;;;;0.00;0.00;;;;;;;-145.01;100.00;64805.59;5072552;28;20076;-59
2023/07/02 08:35:28;;;;;;;0.00;0.00;;;;;;;-145.01;100.00;64805.59;5081265;28;20036;-59
2023/07/02 08:37:56;;;;;;;0.00;0.00;;;;;;;-145.01;100.00;64805.59;5080492;28;20075;-59
2023/07/02 08:40:29;;;;;;;0.00;0.00;;;;;;;-145.01;100.00;64805.59;5085038;28;20072;-59
2023/07/02 08:43:00;;;;;;;0.10;0.10;;;;;;;-145.01;100.00;64805.59;5080941;28;20045;-59
2023/07/02 08:45:27;;;;;;;0.00;0.00;;;;;;;-145.01;100.00;64805.59;5082247;28;20044;-59
2023/07/02 08:47:56;;;;;;;0.00;0.00;;;;;;;-145.01;100.00;64805.59;5072823;28;20044;-60
2023/07/02 08:50:28;;;;;;;0.00;0.00;;;;;;;-145.01;100.00;64805.59;5077707;28;20040;-59
2023/07/02 08:52:55;;;;;;;0.00;0.00;;;;;;;-145.01;100.00;64805.59;5083327;28;20100;-59
2023/07/02 08:55:30;;;;;;;0.00;0.00;;;;;;;-145.01;100.00;64805.59;5075151;28;20052;-59
2023/07/02 08:58:00;;;;;;;0.10;0.10;;;;;;;-145.01;100.00;64805.59;5078968;28;20106;-59
2023/07/02 09:00:30;;;;;;;0.00;0.00;;;;;;;-145.01;100.00;64805.59;5080768;28;20040;-59
2023/07/02 09:02:58;;;;;;;0.00;0.00;;;;;;;-145.01;100.00;64805.59;5079351;28;20573;-59
2023/07/02 09:05:30;;;;;;;0.00;0.00;;;;;;;-145.01;100.00;64805.59;5080309;28;20132;-59
2023/07/02 09:07:57;;;;;;;0.00;0.00;;;;;;;-145.01;100.00;64805.59;5083241;28;20039;-59
2023/07/02 09:10:33;;;;;;;0.00;0.00;;;;;;;-145.01;100.00;64805.59;5082843;28;20508;-59
2023/07/02 09:13:05;;;;;;;0.00;0.00;;;;;;;-145.01;100.00;64805.59;5078362;28;20143;-59
2023/07/02 09:15:37;;;;;;;0.00;0.00;;;;;;;-145.01;100.00;64805.59;5079458;28;20040;-59
2023/07/02 09:18:15;;;;;;;0.00;0.00;;;;;;;-145.01;100.00;64805.59;5081990;28;20041;-59
2023/07/02 09:20:43;;;;;;;0.00;0.00;;;;;;;-145.01;100.00;64805.59;5078874;28;20048;-59
2023/07/02 09:23:11;;;;;;;0.10;0.10;;;;;;;-145.01;100.00;64805.59;5077722;28;20043;-59
2023/07/02 09:25:39;;;;;;;0.00;0.00;;;;;;;-145.01;100.00;64805.59;5079677;28;20049;-59
2023/07/02 09:28:15;;;;;;;0.00;0.00;;;;;;;-145.01;100.00;64805.59;5081314;28;20140;-59
2023/07/02 09:30:51;;;;;;;0.00;0.00;;;;;;;-145.01;100.00;64805.59;5081718;28;20051;-59
2023/07/02 09:33:18;;;;;;;0.00;0.00;;;;;;;-145.01;100.00;64805.59;5078199;28;20079;-59
2023/07/02 09:35:47;;;;;;;0.00;0.00;;;;;;;-145.01;100.00;64805.59;5073954;28;20474;-59
2023/07/02 09:38:14;;;;;;;0.00;0.00;;;;;;;-145.01;100.00;64805.59;5085190;28;20043;-59
2023/07/02 09:40:46;;;;;;;0.00;0.00;;;;;;;-145.01;100.00;64805.59;5076481;28;20056;-59
2023/07/02 09:43:14;;;;;;;0.00;0.00;;;;;;;-145.01;100.00;64805.59;5073160;28;20029;-59
2023/07/02 09:45:43;;;;;;;0.00;0.00;;;;;;;-145.01;100.00;64805.59;5074260;28;20048;-59
2023/07/02 09:48:11;;;;;;;0.00;0.00;;;;;;;-145.01;100.00;64805.59;5073832;28;20098;-59
2023/07/02 09:50:40;;;;;;;0.00;0.00;;;;;;;-145.01;100.00;64805.59;5076037;28;20048;-59
2023/07/02 09:53:08;;;;;;;0.08;0.08;;;;;;;-145.01;100.00;64805.59;5075272;28;20105;-59
2023/07/02 09:55:36;;;;;;;0.00;0.00;;;;;;;-145.01;100.00;64805.59;5083592;28;20144;-59
2023/07/02 09:58:03;;;;;;;0.00;0.00;;;;;;;-145.01;100.00;64805.59;5082940;28;20513;-59
2023/07/02 10:00:31;;;;;;;0.00;0.00;;;;;;;-145.01;100.00;64805.59;5071692;28;20044;-59
2023/07/02 10:03:00;;;;;;;0.00;0.00;;;;;;;-145.01;100.00;64805.59;5074888;28;20493;-59
2023/07/02 10:05:28;;;;;;;0.00;0.00;;;;;;;-145.01;100.00;64805.59;5075681;28;20130;-59
2023/07/02 10:07:56;;;;;;;0.10;0.10;;;;;;;-145.01;100.00;64805.59;5078980;28;20044;-59
2023/07/02 10:10:33;;;;;;;0.00;0.00;;;;;;;-145.01;100.00;64805.59;5073209;28;20498;-59
2023/07/02 10:13:01;;;;;;;0.00;0.00;;;;;;;-145.01;100.00;64805.59;5070976;28;20053;-60
2023/07/02 10:15:29;;;;;;;0.00;0.00;;;;;;;-145.01;100.00;64805.59;5079309;28;20048;-60
2023/07/02 10:17:56;;;;;;;0.00;0.00;;;;;;;-145.01;100.00;64805.59;5079968;28;20048;-60
2023/07/02 10:20:33;;;;;;;0.20;0.10;;;;;;;-145.01;100.00;64805.59;5076673;28;20069;-60
2023/07/02 10:23:01;;;;;;;0.00;0.00;;;;;;;-145.01;100.00;64805.59;5078648;28;20175;-60
2023/07/02 10:25:34;;;;;;;0.10;0.10;;;;;;;-145.01;100.00;64805.59;5069577;28;20044;-59
2023/07/02 10:28:02;;;;;;;0.00;0.00;;;;;;;-145.01;100.00;64805.59;5074516;28;20590;-59
2023/07/02 10:30:32;;;;;;;0.00;0.00;;;;;;;-145.01;100.00;64805.59;5079091;28;20067;-60
2023/07/02 10:33:09;;;;;;;0.00;0.00;;;;;;;-145.01;100.00;64805.59;5079617;28;20078;-58
2023/07/02 10:35:36;;;;;;;0.00;0.00;;;;;;;-145.01;100.00;64805.59;5074135;28;20044;-59
2023/07/02 10:38:03;;;;;;;0.00;0.00;;;;;;;-145.01;100.00;64805.59;5075767;28;20072;-58
2023/07/02 10:40:34;;;;;;;0.00;0.00;;;;;;;-145.01;100.00;64805.59;5072463;28;20068;-58
2023/07/02 10:43:01;;;;;;;0.00;0.00;;;;;;;-145.01;100.00;64805.59;5079893;28;20071;-58
2023/07/02 10:45:36;;;;;;;0.00;0.00;;;;;;;-145.01;100.00;64805.59;5083739;28;20036;-58
2023/07/02 10:48:04;;;;;;;0.00;0.00;;;;;;;-145.01;100.00;64805.59;5080275;28;20127;-59
2023/07/02 10:50:32;;;;;;;0.40;0.10;;;;;;;-145.01;100.00;64805.59;5076424;28;20036;-59
2023/07/02 10:52:59;;;;;;;0.00;0.00;;;;;;;-145.01;100.00;64805.59;5077630;28;20048;-58
2023/07/02 10:55:28;;;;;;;0.00;0.00;;;;;;;-145.01;100.00;64805.59;5076737;28;20036;-59
2023/07/02 10:58:07;;;;;;;0.08;0.00;;;;;;;-145.01;100.00;64805.59;5083191;28;20458;-58
2023/07/02 11:00:40;;;;;;;0.00;0.00;;;;;;;-145.01;100.00;64805.59;5074112;28;20680;-59
2023/07/02 11:03:17;;;;;;;0.00;0.00;;;;;;;-145.01;100.00;64805.59;5071604;28;20044;-58
2023/07/02 11:05:44;;;;;;;0.00;0.00;;;;;;;-145.01;100.00;64805.59;5079021;28;20061;-58
2023/07/02 11:08:12;;;;;;;0.00;0.00;;;;;;;-145.01;100.00;64805.59;5077065;28;20040;-58
2023/07/02 11:10:39;;;;;;;0.00;0.00;;;;;;;-145.01;100.00;64805.59;5078056;28;20509;-58
2023/07/02 11:13:14;;;;;;;0.00;0.00;;;;;;;-145.01;100.00;64805.59;5073309;28;20047;-58
2023/07/02 11:15:45;;;;;;;0.00;0.00;;;;;;;-145.01;100.00;64805.59;5078174;28;20534;-58
2023/07/02 11:18:13;;;;;;;0.00;0.00;;;;;;;-145.01;100.00;64805.59;5074045;28;20044;-59
2023/07/02 11:20:40;;;;;;;0.00;0.00;;;;;;;-145.01;100.00;64805.59;5076451;28;20123;-60